sensor_id;sensor_type;location;lat;lon;timestamp;noise_LAeq;noise_LA_min;noise_LA_max;noise_LA01;noise_LA95
70077;Laerm;57448;51.490;5.436;2023-01-29T00:00:33;40.84;36.14;48.75;;
70077;Laerm;57448;51.490;5.436;2023-01-29T00:02:55;41.28;36.90;47.05;;
70077;Laerm;57448;51.490;5.436;2023-01-29T00:05:18;41.91;36.96;48.07;;
70077;Laerm;57448;51.490;5.436;2023-01-29T00:07:40;41.23;36.65;50.75;;
70077;Laerm;57448;51.490;5.436;2023-01-29T00:10:02;41.24;36.79;54.37;;
70077;Laerm;57448;51.490;5.436;2023-01-29T00:12:23;42.26;36.19;47.99;;
70077;Laerm;57448;51.490;5.436;2023-01-29T00:14:45;41.63;37.54;50.25;;
70077;Laerm;57448;51.490;5.436;2023-01-29T00:17:07;41.84;36.52;49.05;;
70077;Laerm;57448;51.490;5.436;2023-01-29T00:19:29;41.95;36.39;50.11;;
70077;Laerm;57448;51.490;5.436;2023-01-29T00:21:52;41.67;36.35;48.03;;
70077;Laerm;57448;51.490;5.436;2023-01-29T00:24:14;41.44;37.40;45.86;;
70077;Laerm;57448;51.490;5.436;2023-01-29T00:26:35;41.35;36.36;45.84;;
70077;Laerm;57448;51.490;5.436;2023-01-29T00:28:58;41.43;36.28;49.85;;
70077;Laerm;57448;51.490;5.436;2023-01-29T00:31:22;40.79;35.13;48.84;;
70077;Laerm;57448;51.490;5.436;2023-01-29T00:33:44;41.17;37.21;48.80;;
70077;Laerm;57448;51.490;5.436;2023-01-29T00:36:06;40.89;36.84;47.62;;
70077;Laerm;57448;51.490;5.436;2023-01-29T00:38:30;40.54;35.87;49.51;;
70077;Laerm;57448;51.490;5.436;2023-01-29T00:40:51;41.17;36.12;47.52;;
70077;Laerm;57448;51.490;5.436;2023-01-29T00:43:30;40.52;35.47;47.99;;
70077;Laerm;57448;51.490;5.436;2023-01-29T00:46:10;39.65;35.96;53.43;;
70077;Laerm;57448;51.490;5.436;2023-01-29T00:48:32;39.92;34.35;45.68;;
70077;Laerm;57448;51.490;5.436;2023-01-29T00:50:53;40.03;33.75;46.59;;
70077;Laerm;57448;51.490;5.436;2023-01-29T00:53:15;40.31;35.63;49.34;;
70077;Laerm;57448;51.490;5.436;2023-01-29T00:55:38;39.50;35.48;51.02;;
70077;Laerm;57448;51.490;5.436;2023-01-29T00:58:00;39.63;35.69;50.00;;
70077;Laerm;57448;51.490;5.436;2023-01-29T01:00:21;38.50;34.78;48.50;;
70077;Laerm;57448;51.490;5.436;2023-01-29T01:02:44;38.05;33.82;45.10;;
70077;Laerm;57448;51.490;5.436;2023-01-29T01:05:19;39.84;33.89;46.10;;
70077;Laerm;57448;51.490;5.436;2023-01-29T01:07:41;39.88;34.80;45.89;;
70077;Laerm;57448;51.490;5.436;2023-01-29T01:10:03;40.59;36.02;54.44;;
70077;Laerm;57448;51.490;5.436;2023-01-29T01:12:43;39.49;35.21;53.04;;
70077;Laerm;57448;51.490;5.436;2023-01-29T01:15:05;39.62;35.44;47.04;;
70077;Laerm;57448;51.490;5.436;2023-01-29T01:17:27;39.80;35.17;51.57;;
70077;Laerm;57448;51.490;5.436;2023-01-29T01:19:48;39.11;33.90;52.05;;
70077;Laerm;57448;51.490;5.436;2023-01-29T01:22:10;37.68;33.54;48.88;;
70077;Laerm;57448;51.490;5.436;2023-01-29T01:24:32;38.82;34.64;43.92;;
70077;Laerm;57448;51.490;5.436;2023-01-29T01:26:53;40.45;33.37;50.31;;
70077;Laerm;57448;51.490;5.436;2023-01-29T01:29:16;39.68;34.36;51.71;;
70077;Laerm;57448;51.490;5.436;2023-01-29T01:31:38;37.22;32.75;42.58;;
70077;Laerm;57448;51.490;5.436;2023-01-29T01:34:00;37.51;33.15;43.16;;
70077;Laerm;57448;51.490;5.436;2023-01-29T01:36:21;37.59;34.17;42.94;;
70077;Laerm;57448;51.490;5.436;2023-01-29T01:38:43;39.20;34.62;49.07;;
70077;Laerm;57448;51.490;5.436;2023-01-29T01:41:05;38.09;33.92;47.05;;
70077;Laerm;57448;51.490;5.436;2023-01-29T01:43:27;38.46;34.58;43.78;;
70077;Laerm;57448;51.490;5.436;2023-01-29T01:45:50;38.85;34.65;49.58;;
70077;Laerm;57448;51.490;5.436;2023-01-29T01:48:11;38.08;33.33;47.14;;
70077;Laerm;57448;51.490;5.436;2023-01-29T01:50:37;36.92;33.14;48.51;;
70077;Laerm;57448;51.490;5.436;2023-01-29T01:53:03;37.00;33.31;43.02;;
70077;Laerm;57448;51.490;5.436;2023-01-29T01:55:26;37.84;33.50;43.51;;
70077;Laerm;57448;51.490;5.436;2023-01-29T01:57:49;37.59;33.23;47.79;;
70077;Laerm;57448;51.490;5.436;2023-01-29T02:00:14;37.39;33.17;44.04;;
70077;Laerm;57448;51.490;5.436;2023-01-29T02:02:39;38.80;33.17;51.40;;
70077;Laerm;57448;51.490;5.436;2023-01-29T02:05:19;36.11;32.50;43.01;;
70077;Laerm;57448;51.490;5.436;2023-01-29T02:07:58;37.40;32.84;43.18;;
70077;Laerm;57448;51.490;5.436;2023-01-29T02:10:39;37.21;33.01;43.66;;
70077;Laerm;57448;51.490;5.436;2023-01-29T02:13:02;37.20;32.74;43.99;;
70077;Laerm;57448;51.490;5.436;2023-01-29T02:15:24;37.41;33.05;43.42;;
70077;Laerm;57448;51.490;5.436;2023-01-29T02:17:47;37.36;33.23;44.55;;
70077;Laerm;57448;51.490;5.436;2023-01-29T02:20:11;38.08;33.41;43.84;;
70077;Laerm;57448;51.490;5.436;2023-01-29T02:22:45;38.16;33.61;47.58;;
70077;Laerm;57448;51.490;5.436;2023-01-29T02:28:05;37.23;33.23;46.73;;
70077;Laerm;57448;51.490;5.436;2023-01-29T02:30:34;38.12;33.85;45.32;;
70077;Laerm;57448;51.490;5.436;2023-01-29T02:32:58;36.49;32.63;43.92;;
70077;Laerm;57448;51.490;5.436;2023-01-29T02:35:22;36.30;32.36;45.98;;
70077;Laerm;57448;51.490;5.436;2023-01-29T02:37:53;37.53;32.66;44.30;;
70077;Laerm;57448;51.490;5.436;2023-01-29T02:40:17;37.52;33.04;46.76;;
70077;Laerm;57448;51.490;5.436;2023-01-29T02:42:46;37.30;32.96;48.27;;
70077;Laerm;57448;51.490;5.436;2023-01-29T02:45:12;36.72;32.21;43.45;;
70077;Laerm;57448;51.490;5.436;2023-01-29T02:47:39;37.73;33.11;45.16;;
70077;Laerm;57448;51.490;5.436;2023-01-29T02:50:03;37.28;32.93;44.22;;
70077;Laerm;57448;51.490;5.436;2023-01-29T02:52:28;35.57;32.54;42.70;;
70077;Laerm;57448;51.490;5.436;2023-01-29T02:54:56;37.91;33.42;44.98;;
70077;Laerm;57448;51.490;5.436;2023-01-29T02:57:19;36.70;33.23;43.05;;
70077;Laerm;57448;51.490;5.436;2023-01-29T02:59:42;36.36;32.34;47.19;;
70077;Laerm;57448;51.490;5.436;2023-01-29T03:02:07;35.88;32.60;43.76;;
70077;Laerm;57448;51.490;5.436;2023-01-29T03:04:32;37.40;32.67;45.90;;
70077;Laerm;57448;51.490;5.436;2023-01-29T03:06:58;36.50;32.57;45.82;;
70077;Laerm;57448;51.490;5.436;2023-01-29T03:09:24;36.79;32.83;44.30;;
70077;Laerm;57448;51.490;5.436;2023-01-29T03:11:50;36.72;31.87;43.16;;
70077;Laerm;57448;51.490;5.436;2023-01-29T03:14:13;37.60;33.14;44.00;;
70077;Laerm;57448;51.490;5.436;2023-01-29T03:16:37;42.85;33.29;57.89;;
70077;Laerm;57448;51.490;5.436;2023-01-29T03:19:01;39.67;33.68;53.87;;
70077;Laerm;57448;51.490;5.436;2023-01-29T03:21:27;39.67;33.92;46.33;;
70077;Laerm;57448;51.490;5.436;2023-01-29T03:24:07;37.24;33.13;43.41;;
70077;Laerm;57448;51.490;5.436;2023-01-29T03:26:48;35.99;32.64;43.10;;
70077;Laerm;57448;51.490;5.436;2023-01-29T03:29:28;35.65;31.23;41.54;;
70077;Laerm;57448;51.490;5.436;2023-01-29T03:32:08;35.61;32.23;42.38;;
70077;Laerm;57448;51.490;5.436;2023-01-29T03:34:32;37.58;32.54;44.21;;
70077;Laerm;57448;51.490;5.436;2023-01-29T03:37:00;37.75;33.50;44.80;;
70077;Laerm;57448;51.490;5.436;2023-01-29T03:39:23;38.74;33.64;49.47;;
70077;Laerm;57448;51.490;5.436;2023-01-29T03:41:45;36.59;32.47;44.71;;
70077;Laerm;57448;51.490;5.436;2023-01-29T03:44:10;36.56;32.10;44.30;;
70077;Laerm;57448;51.490;5.436;2023-01-29T03:46:37;37.92;32.54;48.04;;
70077;Laerm;57448;51.490;5.436;2023-01-29T03:49:04;37.02;32.96;47.77;;
70077;Laerm;57448;51.490;5.436;2023-01-29T03:51:29;36.24;33.07;43.31;;
70077;Laerm;57448;51.490;5.436;2023-01-29T03:53:55;36.01;31.84;44.82;;
70077;Laerm;57448;51.490;5.436;2023-01-29T03:56:26;36.37;32.52;44.14;;
70077;Laerm;57448;51.490;5.436;2023-01-29T03:58:54;38.29;33.39;47.25;;
70077;Laerm;57448;51.490;5.436;2023-01-29T04:01:18;36.86;31.69;45.31;;
70077;Laerm;57448;51.490;5.436;2023-01-29T04:03:42;36.07;32.33;40.96;;
70077;Laerm;57448;51.490;5.436;2023-01-29T04:06:10;37.43;33.38;43.80;;
70077;Laerm;57448;51.490;5.436;2023-01-29T04:08:33;38.11;33.55;47.84;;
70077;Laerm;57448;51.490;5.436;2023-01-29T04:10:58;37.99;33.65;46.09;;
70077;Laerm;57448;51.490;5.436;2023-01-29T04:13:20;36.30;32.11;43.78;;
70077;Laerm;57448;51.490;5.436;2023-01-29T04:15:44;38.57;33.42;45.34;;
70077;Laerm;57448;51.490;5.436;2023-01-29T04:18:07;38.06;33.98;44.46;;
70077;Laerm;57448;51.490;5.436;2023-01-29T04:20:28;39.05;34.46;48.44;;
70077;Laerm;57448;51.490;5.436;2023-01-29T04:22:50;39.07;32.39;54.05;;
70077;Laerm;57448;51.490;5.436;2023-01-29T04:25:12;37.74;32.36;49.59;;
70077;Laerm;57448;51.490;5.436;2023-01-29T04:27:39;40.95;32.78;51.19;;
70077;Laerm;57448;51.490;5.436;2023-01-29T04:30:06;40.59;32.82;51.32;;
70077;Laerm;57448;51.490;5.436;2023-01-29T04:32:34;37.30;32.32;46.65;;
70077;Laerm;57448;51.490;5.436;2023-01-29T04:35:00;36.39;31.99;43.38;;
70077;Laerm;57448;51.490;5.436;2023-01-29T04:37:26;36.58;33.23;43.69;;
70077;Laerm;57448;51.490;5.436;2023-01-29T04:39:52;37.77;33.99;42.73;;
70077;Laerm;57448;51.490;5.436;2023-01-29T04:42:19;37.77;33.32;44.00;;
70077;Laerm;57448;51.490;5.436;2023-01-29T04:44:45;38.72;35.26;43.50;;
70077;Laerm;57448;51.490;5.436;2023-01-29T04:47:14;38.23;33.97;44.49;;
70077;Laerm;57448;51.490;5.436;2023-01-29T04:49:40;37.02;33.30;41.23;;
70077;Laerm;57448;51.490;5.436;2023-01-29T04:52:06;37.85;34.26;44.96;;
70077;Laerm;57448;51.490;5.436;2023-01-29T04:54:33;38.45;34.13;50.77;;
70077;Laerm;57448;51.490;5.436;2023-01-29T04:57:00;38.45;32.60;49.25;;
70077;Laerm;57448;51.490;5.436;2023-01-29T04:59:26;38.24;34.05;43.64;;
70077;Laerm;57448;51.490;5.436;2023-01-29T05:01:50;36.98;32.43;44.66;;
70077;Laerm;57448;51.490;5.436;2023-01-29T05:04:13;36.31;32.22;43.15;;
70077;Laerm;57448;51.490;5.436;2023-01-29T05:06:36;37.06;33.21;43.36;;
70077;Laerm;57448;51.490;5.436;2023-01-29T05:08:58;36.68;32.98;42.47;;
70077;Laerm;57448;51.490;5.436;2023-01-29T05:11:21;38.53;33.61;47.01;;
70077;Laerm;57448;51.490;5.436;2023-01-29T05:13:44;38.11;32.93;44.91;;
70077;Laerm;57448;51.490;5.436;2023-01-29T05:16:07;38.84;34.52;44.29;;
70077;Laerm;57448;51.490;5.436;2023-01-29T05:18:33;38.38;34.67;43.70;;
70077;Laerm;57448;51.490;5.436;2023-01-29T05:20:55;37.89;33.98;43.84;;
70077;Laerm;57448;51.490;5.436;2023-01-29T05:23:20;39.24;33.98;51.41;;
70077;Laerm;57448;51.490;5.436;2023-01-29T05:25:41;37.72;34.10;49.59;;
70077;Laerm;57448;51.490;5.436;2023-01-29T05:28:03;37.82;33.90;43.11;;
70077;Laerm;57448;51.490;5.436;2023-01-29T05:30:24;37.60;34.33;41.53;;
70077;Laerm;57448;51.490;5.436;2023-01-29T05:32:46;37.97;34.31;44.17;;
70077;Laerm;57448;51.490;5.436;2023-01-29T05:35:09;38.15;35.33;44.38;;
70077;Laerm;57448;51.490;5.436;2023-01-29T05:37:31;38.20;34.89;44.09;;
70077;Laerm;57448;51.490;5.436;2023-01-29T05:39:53;39.55;34.73;44.62;;
70077;Laerm;57448;51.490;5.436;2023-01-29T05:42:15;39.31;35.97;44.38;;
70077;Laerm;57448;51.490;5.436;2023-01-29T05:44:36;39.46;34.93;44.42;;
70077;Laerm;57448;51.490;5.436;2023-01-29T05:46:58;39.05;35.71;42.47;;
70077;Laerm;57448;51.490;5.436;2023-01-29T05:49:22;39.35;35.65;43.48;;
70077;Laerm;57448;51.490;5.436;2023-01-29T05:51:45;39.68;35.62;44.96;;
70077;Laerm;57448;51.490;5.436;2023-01-29T05:54:06;38.12;34.93;41.93;;
70077;Laerm;57448;51.490;5.436;2023-01-29T05:56:28;39.65;34.81;45.59;;
70077;Laerm;57448;51.490;5.436;2023-01-29T05:58:50;38.20;34.66;42.28;;
70077;Laerm;57448;51.490;5.436;2023-01-29T06:01:12;38.73;34.54;44.38;;
70077;Laerm;57448;51.490;5.436;2023-01-29T06:03:34;37.99;34.25;42.08;;
70077;Laerm;57448;51.490;5.436;2023-01-29T06:05:56;38.22;34.70;41.70;;
70077;Laerm;57448;51.490;5.436;2023-01-29T06:08:19;39.56;34.78;44.41;;
70077;Laerm;57448;51.490;5.436;2023-01-29T06:10:41;39.83;35.61;44.11;;
70077;Laerm;57448;51.490;5.436;2023-01-29T06:13:02;40.41;35.23;49.11;;
70077;Laerm;57448;51.490;5.436;2023-01-29T06:15:24;37.73;33.88;42.84;;
70077;Laerm;57448;51.490;5.436;2023-01-29T06:17:46;39.07;36.17;43.14;;
70077;Laerm;57448;51.490;5.436;2023-01-29T06:20:09;38.76;35.04;42.90;;
70077;Laerm;57448;51.490;5.436;2023-01-29T06:22:31;39.05;35.83;45.21;;
70077;Laerm;57448;51.490;5.436;2023-01-29T06:24:54;40.21;35.43;58.18;;
70077;Laerm;57448;51.490;5.436;2023-01-29T06:27:16;40.04;36.20;52.23;;
70077;Laerm;57448;51.490;5.436;2023-01-29T06:29:38;40.09;35.37;49.54;;
70077;Laerm;57448;51.490;5.436;2023-01-29T06:32:00;38.73;35.27;42.85;;
70077;Laerm;57448;51.490;5.436;2023-01-29T06:34:21;38.87;34.83;44.21;;
70077;Laerm;57448;51.490;5.436;2023-01-29T06:36:43;39.46;36.14;44.31;;
70077;Laerm;57448;51.490;5.436;2023-01-29T06:39:05;39.53;35.92;43.27;;
70077;Laerm;57448;51.490;5.436;2023-01-29T06:41:28;39.49;35.80;43.40;;
70077;Laerm;57448;51.490;5.436;2023-01-29T06:43:49;39.39;35.51;53.04;;
70077;Laerm;57448;51.490;5.436;2023-01-29T06:46:11;40.07;35.05;47.22;;
70077;Laerm;57448;51.490;5.436;2023-01-29T06:48:33;40.64;35.61;56.24;;
70077;Laerm;57448;51.490;5.436;2023-01-29T06:51:00;40.09;35.41;45.20;;
70077;Laerm;57448;51.490;5.436;2023-01-29T06:53:21;42.10;37.00;57.96;;
70077;Laerm;57448;51.490;5.436;2023-01-29T06:55:49;50.30;37.34;64.35;;
70077;Laerm;57448;51.490;5.436;2023-01-29T06:58:13;40.10;35.97;57.59;;
70077;Laerm;57448;51.490;5.436;2023-01-29T07:00:34;53.29;36.47;68.93;;
70077;Laerm;57448;51.490;5.436;2023-01-29T07:02:56;48.93;37.33;69.28;;
70077;Laerm;57448;51.490;5.436;2023-01-29T07:05:18;40.98;37.10;54.06;;
70077;Laerm;57448;51.490;5.436;2023-01-29T07:07:39;40.83;36.37;51.79;;
70077;Laerm;57448;51.490;5.436;2023-01-29T07:10:01;43.42;37.62;64.00;;
70077;Laerm;57448;51.490;5.436;2023-01-29T07:12:23;42.21;36.15;63.12;;
70077;Laerm;57448;51.490;5.436;2023-01-29T07:14:46;40.42;36.32;55.26;;
70077;Laerm;57448;51.490;5.436;2023-01-29T07:17:07;41.28;37.17;58.25;;
70077;Laerm;57448;51.490;5.436;2023-01-29T07:19:29;41.85;36.51;59.37;;
70077;Laerm;57448;51.490;5.436;2023-01-29T07:21:51;48.43;36.50;72.86;;
70077;Laerm;57448;51.490;5.436;2023-01-29T07:24:13;52.39;36.41;69.72;;
70077;Laerm;57448;51.490;5.436;2023-01-29T07:26:35;44.87;37.62;65.28;;
70077;Laerm;57448;51.490;5.436;2023-01-29T07:28:57;44.60;37.83;70.21;;
70077;Laerm;57448;51.490;5.436;2023-01-29T07:31:20;44.18;38.00;63.61;;
70077;Laerm;57448;51.490;5.436;2023-01-29T07:33:42;42.36;36.64;56.13;;
70077;Laerm;57448;51.490;5.436;2023-01-29T07:36:06;41.87;37.98;57.56;;
70077;Laerm;57448;51.490;5.436;2023-01-29T07:38:27;42.49;37.23;59.12;;
70077;Laerm;57448;51.490;5.436;2023-01-29T07:40:50;51.21;39.08;63.78;;
70077;Laerm;57448;51.490;5.436;2023-01-29T07:43:12;43.56;38.89;57.71;;
70077;Laerm;57448;51.490;5.436;2023-01-29T07:45:34;42.51;38.05;57.75;;
70077;Laerm;57448;51.490;5.436;2023-01-29T07:47:57;42.30;37.66;59.10;;
70077;Laerm;57448;51.490;5.436;2023-01-29T07:50:19;43.64;38.49;55.68;;
70077;Laerm;57448;51.490;5.436;2023-01-29T07:52:40;45.20;38.81;65.57;;
70077;Laerm;57448;51.490;5.436;2023-01-29T07:55:02;42.60;39.27;54.70;;
70077;Laerm;57448;51.490;5.436;2023-01-29T07:57:24;42.54;38.15;57.73;;
70077;Laerm;57448;51.490;5.436;2023-01-29T07:59:46;45.72;37.82;62.35;;
70077;Laerm;57448;51.490;5.436;2023-01-29T08:02:08;43.37;38.53;57.99;;
70077;Laerm;57448;51.490;5.436;2023-01-29T08:04:31;51.55;39.74;68.34;;
70077;Laerm;57448;51.490;5.436;2023-01-29T08:06:52;43.55;38.14;60.11;;
70077;Laerm;57448;51.490;5.436;2023-01-29T08:09:14;46.55;39.87;66.00;;
70077;Laerm;57448;51.490;5.436;2023-01-29T08:11:34;43.71;40.30;49.22;;
70077;Laerm;57448;51.490;5.436;2023-01-29T08:13:54;43.49;39.42;54.60;;
70077;Laerm;57448;51.490;5.436;2023-01-29T08:16:15;45.52;39.10;65.18;;
70077;Laerm;57448;51.490;5.436;2023-01-29T08:18:35;51.22;39.94;68.22;;
70077;Laerm;57448;51.490;5.436;2023-01-29T08:20:59;50.22;39.38;65.01;;
70077;Laerm;57448;51.490;5.436;2023-01-29T08:23:19;44.00;40.17;53.51;;
70077;Laerm;57448;51.490;5.436;2023-01-29T08:25:39;51.63;39.63;65.24;;
70077;Laerm;57448;51.490;5.436;2023-01-29T08:27:59;46.34;38.39;67.03;;
70077;Laerm;57448;51.490;5.436;2023-01-29T08:30:19;42.90;38.57;59.75;;
70077;Laerm;57448;51.490;5.436;2023-01-29T08:32:39;52.54;39.47;65.90;;
70077;Laerm;57448;51.490;5.436;2023-01-29T08:34:59;43.19;39.18;61.29;;
70077;Laerm;57448;51.490;5.436;2023-01-29T08:37:20;53.10;40.51;67.41;;
70077;Laerm;57448;51.490;5.436;2023-01-29T08:39:40;44.22;40.44;56.57;;
70077;Laerm;57448;51.490;5.436;2023-01-29T08:42:00;45.33;40.08;60.79;;
70077;Laerm;57448;51.490;5.436;2023-01-29T08:44:20;43.98;39.93;55.75;;
70077;Laerm;57448;51.490;5.436;2023-01-29T08:46:40;43.81;40.44;54.23;;
70077;Laerm;57448;51.490;5.436;2023-01-29T08:49:00;45.26;40.94;63.82;;
70077;Laerm;57448;51.490;5.436;2023-01-29T08:51:20;44.95;41.16;62.21;;
70077;Laerm;57448;51.490;5.436;2023-01-29T08:53:42;44.36;40.75;52.17;;
70077;Laerm;57448;51.490;5.436;2023-01-29T08:56:01;53.48;41.71;79.40;;
70077;Laerm;57448;51.490;5.436;2023-01-29T08:58:22;46.07;41.48;60.51;;
70077;Laerm;57448;51.490;5.436;2023-01-29T09:00:42;52.87;41.41;66.52;;
70077;Laerm;57448;51.490;5.436;2023-01-29T09:03:02;47.69;40.69;64.14;;
70077;Laerm;57448;51.490;5.436;2023-01-29T09:05:22;45.66;40.41;59.27;;
70077;Laerm;57448;51.490;5.436;2023-01-29T09:07:42;44.51;40.17;61.36;;
70077;Laerm;57448;51.490;5.436;2023-01-29T09:10:03;43.67;39.86;53.40;;
70077;Laerm;57448;51.490;5.436;2023-01-29T09:12:23;44.84;41.27;57.80;;
70077;Laerm;57448;51.490;5.436;2023-01-29T09:14:43;44.44;40.98;50.84;;
70077;Laerm;57448;51.490;5.436;2023-01-29T09:17:03;44.81;41.31;58.44;;
70077;Laerm;57448;51.490;5.436;2023-01-29T09:19:23;45.67;41.38;64.14;;
70077;Laerm;57448;51.490;5.436;2023-01-29T09:21:43;47.20;41.05;65.92;;
70077;Laerm;57448;51.490;5.436;2023-01-29T09:24:03;44.48;41.25;51.31;;
70077;Laerm;57448;51.490;5.436;2023-01-29T09:26:25;44.07;40.46;55.31;;
70077;Laerm;57448;51.490;5.436;2023-01-29T09:28:45;45.36;41.22;64.08;;
70077;Laerm;57448;51.490;5.436;2023-01-29T09:31:05;52.89;42.11;66.56;;
70077;Laerm;57448;51.490;5.436;2023-01-29T09:33:25;47.07;41.36;66.34;;
70077;Laerm;57448;51.490;5.436;2023-01-29T09:35:45;50.82;41.61;72.05;;
70077;Laerm;57448;51.490;5.436;2023-01-29T09:38:05;49.15;41.59;75.53;;
70077;Laerm;57448;51.490;5.436;2023-01-29T09:40:26;51.36;42.15;67.15;;
70077;Laerm;57448;51.490;5.436;2023-01-29T09:42:52;49.53;41.93;63.52;;
70077;Laerm;57448;51.490;5.436;2023-01-29T09:45:13;44.38;40.82;57.19;;
70077;Laerm;57448;51.490;5.436;2023-01-29T09:47:35;45.81;41.89;60.15;;
70077;Laerm;57448;51.490;5.436;2023-01-29T09:49:56;48.29;41.85;73.38;;
70077;Laerm;57448;51.490;5.436;2023-01-29T09:52:19;48.47;41.33;65.79;;
70077;Laerm;57448;51.490;5.436;2023-01-29T09:54:45;46.35;41.84;62.43;;
70077;Laerm;57448;51.490;5.436;2023-01-29T09:57:07;46.31;41.57;62.27;;
70077;Laerm;57448;51.490;5.436;2023-01-29T09:59:31;44.23;41.00;59.34;;
70077;Laerm;57448;51.490;5.436;2023-01-29T10:01:53;53.59;41.87;71.48;;
70077;Laerm;57448;51.490;5.436;2023-01-29T10:07:01;46.31;41.83;62.44;;
70077;Laerm;57448;51.490;5.436;2023-01-29T10:12:07;45.38;41.47;56.63;;
70077;Laerm;57448;51.490;5.436;2023-01-29T10:14:34;44.62;41.48;53.24;;
70077;Laerm;57448;51.490;5.436;2023-01-29T10:17:01;44.84;41.64;52.90;;
70077;Laerm;57448;51.490;5.436;2023-01-29T10:22:21;45.74;42.64;52.46;;
70077;Laerm;57448;51.490;5.436;2023-01-29T10:24:48;45.80;42.34;56.30;;
70077;Laerm;57448;51.490;5.436;2023-01-29T10:27:12;45.82;42.48;61.68;;
70077;Laerm;57448;51.490;5.436;2023-01-29T10:29:34;49.94;43.08;68.02;;
70077;Laerm;57448;51.490;5.436;2023-01-29T10:31:55;47.83;42.16;64.91;;
70077;Laerm;57448;51.490;5.436;2023-01-29T10:34:23;52.88;42.11;71.47;;
70077;Laerm;57448;51.490;5.436;2023-01-29T10:36:48;49.84;43.16;69.34;;
70077;Laerm;57448;51.490;5.436;2023-01-29T10:39:13;46.12;42.69;57.73;;
70077;Laerm;57448;51.490;5.436;2023-01-29T10:41:40;46.66;42.96;61.50;;
70077;Laerm;57448;51.490;5.436;2023-01-29T10:44:09;46.11;42.54;56.63;;
70077;Laerm;57448;51.490;5.436;2023-01-29T10:46:41;51.19;42.80;69.64;;
70077;Laerm;57448;51.490;5.436;2023-01-29T10:49:11;52.79;42.37;66.88;;
70077;Laerm;57448;51.490;5.436;2023-01-29T10:51:52;46.24;42.20;60.06;;
70077;Laerm;57448;51.490;5.436;2023-01-29T10:54:22;46.81;42.34;63.33;;
70077;Laerm;57448;51.490;5.436;2023-01-29T10:56:50;53.44;42.94;79.67;;
70077;Laerm;57448;51.490;5.436;2023-01-29T10:59:29;46.26;42.08;66.33;;
70077;Laerm;57448;51.490;5.436;2023-01-29T11:01:57;46.41;43.00;63.21;;
70077;Laerm;57448;51.490;5.436;2023-01-29T11:04:19;51.29;42.19;71.44;;
70077;Laerm;57448;51.490;5.436;2023-01-29T11:06:41;48.22;42.77;69.35;;
70077;Laerm;57448;51.490;5.436;2023-01-29T11:09:04;45.84;42.28;57.31;;
70077;Laerm;57448;51.490;5.436;2023-01-29T11:11:30;46.60;42.83;63.22;;
70077;Laerm;57448;51.490;5.436;2023-01-29T11:13:54;48.18;43.07;69.65;;
70077;Laerm;57448;51.490;5.436;2023-01-29T11:16:17;46.28;42.67;51.82;;
70077;Laerm;57448;51.490;5.436;2023-01-29T11:18:50;54.72;43.07;68.95;;
70077;Laerm;57448;51.490;5.436;2023-01-29T11:21:12;46.77;42.07;58.99;;
70077;Laerm;57448;51.490;5.436;2023-01-29T11:23:35;47.19;43.16;62.41;;
70077;Laerm;57448;51.490;5.436;2023-01-29T11:25:57;46.52;42.22;60.32;;
70077;Laerm;57448;51.490;5.436;2023-01-29T11:28:34;45.77;41.62;63.76;;
70077;Laerm;57448;51.490;5.436;2023-01-29T11:30:55;45.83;42.49;52.80;;
70077;Laerm;57448;51.490;5.436;2023-01-29T11:33:18;53.89;42.09;68.93;;
70077;Laerm;57448;51.490;5.436;2023-01-29T11:35:42;45.91;42.50;57.62;;
70077;Laerm;57448;51.490;5.436;2023-01-29T11:38:08;46.56;42.75;67.14;;
70077;Laerm;57448;51.490;5.436;2023-01-29T11:40:39;50.83;41.96;70.89;;
70077;Laerm;57448;51.490;5.436;2023-01-29T11:43:10;45.20;41.69;53.57;;
70077;Laerm;57448;51.490;5.436;2023-01-29T11:45:32;45.71;42.59;54.59;;
70077;Laerm;57448;51.490;5.436;2023-01-29T11:47:54;55.57;43.07;70.56;;
70077;Laerm;57448;51.490;5.436;2023-01-29T11:50:18;52.63;43.32;68.50;;
70077;Laerm;57448;51.490;5.436;2023-01-29T11:52:40;45.97;42.30;52.36;;
70077;Laerm;57448;51.490;5.436;2023-01-29T11:55:02;46.24;42.00;58.90;;
70077;Laerm;57448;51.490;5.436;2023-01-29T11:57:27;46.93;42.14;69.50;;
70077;Laerm;57448;51.490;5.436;2023-01-29T11:59:49;46.98;43.25;63.70;;
70077;Laerm;57448;51.490;5.436;2023-01-29T12:02:17;47.06;41.89;63.62;;
70077;Laerm;57448;51.490;5.436;2023-01-29T12:04:40;46.94;41.86;55.76;;
70077;Laerm;57448;51.490;5.436;2023-01-29T12:07:00;53.60;43.20;67.91;;
70077;Laerm;57448;51.490;5.436;2023-01-29T12:09:22;46.49;42.94;52.41;;
70077;Laerm;57448;51.490;5.436;2023-01-29T12:11:44;46.46;43.01;58.22;;
70077;Laerm;57448;51.490;5.436;2023-01-29T12:14:05;51.98;44.43;64.28;;
70077;Laerm;57448;51.490;5.436;2023-01-29T12:16:42;51.66;43.78;69.71;;
70077;Laerm;57448;51.490;5.436;2023-01-29T12:19:08;46.97;42.43;59.10;;
70077;Laerm;57448;51.490;5.436;2023-01-29T12:21:32;47.09;43.43;56.58;;
70077;Laerm;57448;51.490;5.436;2023-01-29T12:23:54;46.60;42.65;59.30;;
70077;Laerm;57448;51.490;5.436;2023-01-29T12:26:18;47.41;43.49;63.36;;
70077;Laerm;57448;51.490;5.436;2023-01-29T12:28:44;48.43;43.94;64.94;;
70077;Laerm;57448;51.490;5.436;2023-01-29T12:31:12;47.01;43.27;59.71;;
70077;Laerm;57448;51.490;5.436;2023-01-29T12:33:37;52.25;42.86;63.83;;
70077;Laerm;57448;51.490;5.436;2023-01-29T12:36:00;46.64;42.69;55.02;;
70077;Laerm;57448;51.490;5.436;2023-01-29T12:38:23;46.73;42.28;63.78;;
70077;Laerm;57448;51.490;5.436;2023-01-29T12:40:45;46.65;41.56;62.03;;
70077;Laerm;57448;51.490;5.436;2023-01-29T12:43:11;46.42;42.48;59.49;;
70077;Laerm;57448;51.490;5.436;2023-01-29T12:45:33;46.19;42.72;53.48;;
70077;Laerm;57448;51.490;5.436;2023-01-29T12:47:55;45.68;41.74;59.65;;
70077;Laerm;57448;51.490;5.436;2023-01-29T12:50:17;52.48;43.59;67.08;;
70077;Laerm;57448;51.490;5.436;2023-01-29T12:52:38;56.23;42.56;70.09;;
70077;Laerm;57448;51.490;5.436;2023-01-29T12:55:01;48.41;43.27;64.53;;
70077;Laerm;57448;51.490;5.436;2023-01-29T12:57:23;51.66;43.61;64.39;;
70077;Laerm;57448;51.490;5.436;2023-01-29T12:59:46;47.11;43.23;55.72;;
70077;Laerm;57448;51.490;5.436;2023-01-29T13:02:11;49.26;42.56;70.27;;
70077;Laerm;57448;51.490;5.436;2023-01-29T13:04:35;47.27;43.07;57.70;;
70077;Laerm;57448;51.490;5.436;2023-01-29T13:07:00;45.99;42.74;58.05;;
70077;Laerm;57448;51.490;5.436;2023-01-29T13:09:23;53.65;43.06;67.24;;
70077;Laerm;57448;51.490;5.436;2023-01-29T13:11:45;48.07;43.01;62.93;;
70077;Laerm;57448;51.490;5.436;2023-01-29T13:14:11;48.32;43.61;65.28;;
70077;Laerm;57448;51.490;5.436;2023-01-29T13:16:35;47.40;43.06;53.23;;
70077;Laerm;57448;51.490;5.436;2023-01-29T13:18:56;52.13;43.00;66.29;;
70077;Laerm;57448;51.490;5.436;2023-01-29T13:21:18;49.56;43.03;76.37;;
70077;Laerm;57448;51.490;5.436;2023-01-29T13:23:40;47.92;43.23;58.07;;
70077;Laerm;57448;51.490;5.436;2023-01-29T13:26:01;49.33;42.99;67.19;;
70077;Laerm;57448;51.490;5.436;2023-01-29T13:28:22;50.19;43.20;75.70;;
70077;Laerm;57448;51.490;5.436;2023-01-29T13:30:42;47.14;42.48;57.21;;
70077;Laerm;57448;51.490;5.436;2023-01-29T13:33:04;45.72;41.75;55.20;;
70077;Laerm;57448;51.490;5.436;2023-01-29T13:35:27;46.16;42.02;55.38;;